createdAt,value
2022-12-17T00:00:25.941Z,1016.08
2022-12-17T00:01:21.817Z,1016.10
2022-12-17T00:02:20.829Z,1016.15
2022-12-17T00:03:20.867Z,1016.16
2022-12-17T00:04:20.821Z,1016.19
2022-12-17T00:05:20.773Z,1016.21
2022-12-17T00:06:20.757Z,1016.23
2022-12-17T00:07:20.788Z,1016.23
2022-12-17T00:08:20.737Z,1016.27
2022-12-17T00:09:20.723Z,1016.23
2022-12-17T00:10:20.716Z,1016.27
2022-12-17T00:11:20.682Z,1016.28
2022-12-17T00:12:20.692Z,1016.25
2022-12-17T00:13:20.697Z,1016.25
2022-12-17T00:14:20.703Z,1016.25
2022-12-17T00:15:20.649Z,1016.27
2022-12-17T00:16:20.717Z,1016.29
2022-12-17T00:17:20.635Z,1016.30
2022-12-17T00:18:20.627Z,1016.28
2022-12-17T00:19:20.625Z,1016.30
2022-12-17T00:20:20.615Z,1016.31
2022-12-17T00:21:20.791Z,1016.30
2022-12-17T00:22:20.577Z,1016.30
2022-12-17T00:23:20.569Z,1016.30
2022-12-17T00:24:20.554Z,1016.38
2022-12-17T00:25:20.552Z,1016.34
2022-12-17T00:26:20.544Z,1016.37
2022-12-17T00:27:20.548Z,1016.40
2022-12-17T00:28:20.523Z,1016.44
2022-12-17T00:29:20.514Z,1016.46
2022-12-17T00:30:20.551Z,1016.46
2022-12-17T00:31:20.574Z,1016.47
2022-12-17T00:32:20.502Z,1016.50
2022-12-17T00:33:20.488Z,1016.48
2022-12-17T00:34:20.457Z,1016.50
2022-12-17T00:35:20.425Z,1016.46
2022-12-17T00:36:20.418Z,1016.51
2022-12-17T00:37:20.411Z,1016.47
2022-12-17T00:38:20.408Z,1016.48
2022-12-17T00:39:20.389Z,1016.51
2022-12-17T00:40:20.390Z,1016.54
2022-12-17T00:41:20.355Z,1016.51
2022-12-17T00:42:20.432Z,1016.54
2022-12-17T00:43:20.430Z,1016.51
2022-12-17T00:44:20.353Z,1016.49
2022-12-17T00:45:20.325Z,1016.52
2022-12-17T00:46:20.391Z,1016.48
2022-12-17T00:47:20.286Z,1016.52
2022-12-17T00:48:20.269Z,1016.53
2022-12-17T00:49:20.276Z,1016.52
2022-12-17T00:50:20.296Z,1016.58
2022-12-17T00:51:20.282Z,1016.57
2022-12-17T00:52:20.268Z,1016.57
2022-12-17T00:53:20.238Z,1016.56
2022-12-17T00:54:20.225Z,1016.58
2022-12-17T00:55:20.210Z,1016.57
2022-12-17T00:56:20.220Z,1016.58
2022-12-17T00:57:20.178Z,1016.61
2022-12-17T00:58:20.158Z,1016.61
2022-12-17T00:59:20.158Z,1016.59
2022-12-17T01:00:20.157Z,1016.58
2022-12-17T01:01:20.243Z,1016.56
2022-12-17T01:02:20.284Z,1016.60
2022-12-17T01:03:20.145Z,1016.61
2022-12-17T01:04:20.120Z,1016.61
2022-12-17T01:05:20.100Z,1016.59
2022-12-17T01:06:20.116Z,1016.61
2022-12-17T01:07:20.083Z,1016.61
2022-12-17T01:08:20.059Z,1016.65
2022-12-17T01:09:20.054Z,1016.63
2022-12-17T01:10:20.035Z,1016.63
2022-12-17T01:11:20.057Z,1016.68
2022-12-17T01:12:20.020Z,1016.67
2022-12-17T01:13:20.039Z,1016.73
2022-12-17T01:14:19.998Z,1016.73
2022-12-17T01:15:19.998Z,1016.75
2022-12-17T01:16:19.987Z,1016.75
2022-12-17T01:17:19.984Z,1016.76
2022-12-17T01:18:19.946Z,1016.78
2022-12-17T01:19:20.258Z,1016.78
2022-12-17T01:20:19.922Z,1016.77
2022-12-17T01:21:19.928Z,1016.80
2022-12-17T01:22:19.904Z,1016.78
2022-12-17T01:23:19.883Z,1016.79
2022-12-17T01:24:19.909Z,1016.76
2022-12-17T01:25:19.872Z,1016.78
2022-12-17T01:26:19.885Z,1016.81
2022-12-17T01:27:19.851Z,1016.83
2022-12-17T01:28:19.848Z,1016.83
2022-12-17T01:29:19.867Z,1016.80
2022-12-17T01:30:19.822Z,1016.82
2022-12-17T01:31:19.848Z,1016.83
2022-12-17T01:32:19.793Z,1016.84
2022-12-17T01:33:19.804Z,1016.86
2022-12-17T01:34:19.776Z,1016.84
2022-12-17T01:35:19.768Z,1016.84
2022-12-17T01:36:19.756Z,1016.85
2022-12-17T01:37:19.745Z,1016.85
2022-12-17T01:38:19.720Z,1016.85
2022-12-17T01:39:19.746Z,1016.83
2022-12-17T01:40:19.716Z,1016.82
2022-12-17T01:41:19.713Z,1016.80
2022-12-17T01:42:19.704Z,1016.84
2022-12-17T01:43:19.717Z,1016.81
2022-12-17T01:44:19.672Z,1016.83
2022-12-17T01:45:19.650Z,1016.84
2022-12-17T01:46:19.713Z,1016.83
2022-12-17T01:47:19.625Z,1016.81
2022-12-17T01:48:19.609Z,1016.81
2022-12-17T01:49:19.600Z,1016.84
2022-12-17T01:50:19.614Z,1016.83
2022-12-17T01:51:19.605Z,1016.86
2022-12-17T01:52:19.585Z,1016.88
2022-12-17T01:53:19.583Z,1016.88
2022-12-17T01:54:19.563Z,1016.87
2022-12-17T01:55:19.582Z,1016.90
2022-12-17T01:56:19.568Z,1016.93
2022-12-17T01:57:19.515Z,1016.90
2022-12-17T01:58:19.534Z,1016.88
2022-12-17T01:59:19.482Z,1016.88
2022-12-17T02:00:19.493Z,1016.89
2022-12-17T02:01:19.631Z,1016.90
2022-12-17T02:02:19.578Z,1016.89
2022-12-17T02:03:19.531Z,1016.92
2022-12-17T02:04:19.459Z,1016.91
2022-12-17T02:05:19.465Z,1016.92
2022-12-17T02:06:19.444Z,1016.93
2022-12-17T02:07:19.472Z,1016.94
2022-12-17T02:08:19.401Z,1016.95
2022-12-17T02:09:19.390Z,1016.96
2022-12-17T02:10:19.401Z,1016.99
2022-12-17T02:11:19.369Z,1016.94
2022-12-17T02:12:19.369Z,1016.94
2022-12-17T02:13:19.348Z,1016.92
2022-12-17T02:14:19.326Z,1016.98
2022-12-17T02:15:19.321Z,1016.93
2022-12-17T02:16:19.390Z,1016.93
2022-12-17T02:17:19.303Z,1016.94
2022-12-17T02:18:19.331Z,1016.96
2022-12-17T02:19:19.258Z,1016.96
2022-12-17T02:20:19.273Z,1016.95
2022-12-17T02:21:19.237Z,1016.97
2022-12-17T02:22:19.259Z,1016.94
2022-12-17T02:23:19.436Z,1016.93
2022-12-17T02:24:19.206Z,1016.92
2022-12-17T02:25:19.296Z,1016.91
2022-12-17T02:26:19.209Z,1016.90
2022-12-17T02:27:19.173Z,1016.89
2022-12-17T02:28:19.178Z,1016.91
2022-12-17T02:29:19.187Z,1016.91
2022-12-17T02:30:19.164Z,1016.91
2022-12-17T02:31:19.205Z,1016.91
2022-12-17T02:32:19.289Z,1016.95
2022-12-17T02:33:19.123Z,1016.98
2022-12-17T02:34:19.105Z,1016.99
2022-12-17T02:35:19.084Z,1016.99
2022-12-17T02:36:19.079Z,1016.97
2022-12-17T02:37:19.069Z,1016.99
2022-12-17T02:38:19.069Z,1016.99
2022-12-17T02:39:19.058Z,1016.98
2022-12-17T02:40:19.059Z,1017.00
2022-12-17T02:41:19.053Z,1017.02
2022-12-17T02:42:19.014Z,1017.03
2022-12-17T02:43:19.017Z,1017.05
2022-12-17T02:44:18.994Z,1017.07
2022-12-17T02:45:18.993Z,1017.09
2022-12-17T02:46:19.054Z,1017.11
2022-12-17T02:47:19.014Z,1017.15
2022-12-17T02:48:18.955Z,1017.12
2022-12-17T02:49:18.947Z,1017.12
2022-12-17T02:50:18.932Z,1017.17
2022-12-17T02:51:18.922Z,1017.20
2022-12-17T02:52:19.413Z,1017.20
2022-12-17T02:53:19.119Z,1017.21
2022-12-17T02:54:18.916Z,1017.24
2022-12-17T02:55:18.862Z,1017.23
2022-12-17T02:56:18.863Z,1017.22
2022-12-17T02:57:18.842Z,1017.24
2022-12-17T02:58:18.833Z,1017.23
2022-12-17T02:59:18.836Z,1017.26
2022-12-17T03:00:18.832Z,1017.24
2022-12-17T03:01:18.881Z,1017.29
2022-12-17T03:02:18.922Z,1017.30
2022-12-17T03:03:18.857Z,1017.33
2022-12-17T03:04:18.762Z,1017.32
2022-12-17T03:05:43.528Z,1017.34
2022-12-17T03:06:19.750Z,1017.39
2022-12-17T03:07:18.751Z,1017.37
2022-12-17T03:08:18.793Z,1017.40
2022-12-17T03:09:18.744Z,1017.34
2022-12-17T03:10:18.719Z,1017.33
2022-12-17T03:11:18.737Z,1017.38
2022-12-17T03:12:18.892Z,1017.33
2022-12-17T03:13:18.683Z,1017.36
2022-12-17T03:14:18.666Z,1017.35
2022-12-17T03:15:18.677Z,1017.33
2022-12-17T03:16:18.735Z,1017.32
2022-12-17T03:17:18.635Z,1017.42
2022-12-17T03:18:18.624Z,1017.43
2022-12-17T03:19:18.621Z,1017.39
2022-12-17T03:20:18.609Z,1017.40
2022-12-17T03:21:18.603Z,1017.39
2022-12-17T03:22:18.601Z,1017.39
2022-12-17T03:23:18.552Z,1017.43
2022-12-17T03:24:18.539Z,1017.44
2022-12-17T03:25:18.587Z,1017.40
2022-12-17T03:26:18.529Z,1017.44
2022-12-17T03:27:18.522Z,1017.40
2022-12-17T03:28:18.521Z,1017.40
2022-12-17T03:29:18.499Z,1017.38
2022-12-17T03:30:18.518Z,1017.42
2022-12-17T03:31:18.538Z,1017.39
2022-12-17T03:32:18.470Z,1017.40
2022-12-17T03:33:18.443Z,1017.40
2022-12-17T03:34:18.449Z,1017.35
2022-12-17T03:35:18.450Z,1017.41
2022-12-17T03:36:18.406Z,1017.41
2022-12-17T03:37:18.419Z,1017.39
2022-12-17T03:38:18.405Z,1017.38
2022-12-17T03:39:18.396Z,1017.43
2022-12-17T03:40:18.393Z,1017.42
2022-12-17T03:41:18.350Z,1017.36
2022-12-17T03:42:18.365Z,1017.44
2022-12-17T03:43:18.362Z,1017.41
2022-12-17T03:44:18.395Z,1017.38
2022-12-17T03:45:18.329Z,1017.38
2022-12-17T03:46:18.348Z,1017.44
2022-12-17T03:47:18.306Z,1017.50
2022-12-17T03:48:18.335Z,1017.57
2022-12-17T03:49:18.264Z,1017.66
2022-12-17T03:50:18.278Z,1017.63
2022-12-17T03:51:18.264Z,1017.65
2022-12-17T03:52:18.236Z,1017.72
2022-12-17T03:53:18.262Z,1017.76
2022-12-17T03:54:18.203Z,1017.75
2022-12-17T03:55:18.219Z,1017.74
2022-12-17T03:56:18.204Z,1017.75
2022-12-17T03:57:18.187Z,1017.78
2022-12-17T03:58:18.169Z,1017.77
2022-12-17T03:59:18.163Z,1017.78
2022-12-17T04:00:18.167Z,1017.73
2022-12-17T04:01:18.242Z,1017.77
2022-12-17T04:02:18.347Z,1017.78
2022-12-17T04:03:18.173Z,1017.75
2022-12-17T04:04:18.109Z,1017.78
2022-12-17T04:05:20.368Z,1017.81
2022-12-17T04:06:18.129Z,1017.79
2022-12-17T04:07:18.083Z,1017.80
2022-12-17T04:08:18.044Z,1017.83
2022-12-17T04:09:18.069Z,1017.88
2022-12-17T04:10:18.049Z,1017.88
2022-12-17T04:11:18.036Z,1017.87
2022-12-17T04:12:18.034Z,1017.87
2022-12-17T04:13:18.037Z,1017.87
2022-12-17T04:14:18.007Z,1017.90
2022-12-17T04:15:18.081Z,1017.91
2022-12-17T04:16:18.018Z,1017.93
2022-12-17T04:17:17.987Z,1017.91
2022-12-17T04:18:18.033Z,1017.90
2022-12-17T04:19:17.977Z,1017.91
2022-12-17T04:20:17.944Z,1017.92
2022-12-17T04:21:17.952Z,1017.95
2022-12-17T04:22:17.913Z,1017.93
2022-12-17T04:23:17.926Z,1018.00
2022-12-17T04:24:17.871Z,1017.98
2022-12-17T04:25:17.862Z,1018.01
2022-12-17T04:26:17.870Z,1018.00
2022-12-17T04:27:17.855Z,1018.04
2022-12-17T04:28:17.851Z,1018.04
2022-12-17T04:29:17.875Z,1018.05
2022-12-17T04:30:17.825Z,1018.04
2022-12-17T04:31:17.855Z,1018.05
2022-12-17T04:32:17.875Z,1018.03
2022-12-17T04:33:17.794Z,1018.07
2022-12-17T04:34:17.768Z,1018.05
2022-12-17T04:35:17.775Z,1018.04
2022-12-17T04:36:17.763Z,1018.08
2022-12-17T04:37:17.761Z,1018.08
2022-12-17T04:38:17.731Z,1018.07
2022-12-17T04:39:17.729Z,1018.07
2022-12-17T04:40:17.709Z,1018.09
2022-12-17T04:41:17.703Z,1018.12
2022-12-17T04:42:17.701Z,1018.10
2022-12-17T04:43:17.673Z,1018.12
2022-12-17T04:44:17.672Z,1018.13
2022-12-17T04:45:17.658Z,1018.18
2022-12-17T04:46:17.679Z,1018.14
2022-12-17T04:47:17.646Z,1018.14
2022-12-17T04:48:17.625Z,1018.16
2022-12-17T04:49:17.621Z,1018.15
2022-12-17T04:50:17.630Z,1018.17
2022-12-17T04:51:17.596Z,1018.14
2022-12-17T04:52:17.571Z,1018.15
2022-12-17T04:53:17.558Z,1018.19
2022-12-17T04:54:17.546Z,1018.17
2022-12-17T04:55:17.599Z,1018.19
2022-12-17T04:56:17.514Z,1018.22
2022-12-17T04:57:17.507Z,1018.23
2022-12-17T04:58:17.521Z,1018.21
2022-12-17T04:59:17.501Z,1018.19
2022-12-17T05:00:17.491Z,1018.22
2022-12-17T05:01:17.549Z,1018.25
2022-12-17T05:02:17.544Z,1018.27
2022-12-17T05:03:17.519Z,1018.30
2022-12-17T05:04:17.461Z,1018.28
2022-12-17T05:05:17.427Z,1018.27
2022-12-17T05:06:17.429Z,1018.33
2022-12-17T05:07:17.420Z,1018.34
2022-12-17T05:08:17.400Z,1018.38
2022-12-17T05:09:17.391Z,1018.34
2022-12-17T05:10:17.395Z,1018.36
2022-12-17T05:11:17.380Z,1018.36
2022-12-17T05:12:17.346Z,1018.37
2022-12-17T05:13:17.356Z,1018.39
2022-12-17T05:14:17.379Z,1018.38
2022-12-17T05:15:17.333Z,1018.44
2022-12-17T05:16:17.358Z,1018.46
2022-12-17T05:17:17.294Z,1018.47
2022-12-17T05:18:17.287Z,1018.44
2022-12-17T05:19:17.300Z,1018.39
2022-12-17T05:20:17.272Z,1018.44
2022-12-17T05:21:17.248Z,1018.46
2022-12-17T05:22:17.268Z,1018.42
2022-12-17T05:23:17.235Z,1018.49
2022-12-17T05:24:17.343Z,1018.50
2022-12-17T05:25:17.217Z,1018.50
2022-12-17T05:26:17.220Z,1018.50
2022-12-17T05:27:17.194Z,1018.50
2022-12-17T05:28:17.196Z,1018.55
2022-12-17T05:29:17.172Z,1018.52
2022-12-17T05:30:17.157Z,1018.58
2022-12-17T05:31:17.192Z,1018.59
2022-12-17T05:32:17.145Z,1018.59
2022-12-17T05:33:17.123Z,1018.63
2022-12-17T05:34:17.143Z,1018.60
2022-12-17T05:35:17.117Z,1018.64
2022-12-17T05:36:17.085Z,1018.68
2022-12-17T05:37:17.125Z,1018.65
2022-12-17T05:38:17.088Z,1018.66
2022-12-17T05:39:17.088Z,1018.67
2022-12-17T05:40:17.032Z,1018.68
2022-12-17T05:41:17.066Z,1018.70
2022-12-17T05:42:17.022Z,1018.76
2022-12-17T05:43:17.020Z,1018.76
2022-12-17T05:44:17.017Z,1018.76
2022-12-17T05:45:17.013Z,1018.74
2022-12-17T05:46:17.047Z,1018.73
2022-12-17T05:47:16.996Z,1018.73
2022-12-17T05:48:16.980Z,1018.74
2022-12-17T05:49:16.981Z,1018.77
2022-12-17T05:50:16.920Z,1018.82
2022-12-17T05:51:16.931Z,1018.81
2022-12-17T05:52:16.932Z,1018.84
2022-12-17T05:53:16.900Z,1018.80
2022-12-17T05:54:16.902Z,1018.87
2022-12-17T05:55:16.884Z,1018.87
2022-12-17T05:56:16.859Z,1018.92
2022-12-17T05:57:16.854Z,1018.89
2022-12-17T05:58:16.843Z,1018.89
2022-12-17T05:59:16.881Z,1018.88
2022-12-17T06:00:16.823Z,1018.92
2022-12-17T06:01:16.851Z,1018.89
2022-12-17T06:02:16.882Z,1018.89
2022-12-17T06:03:16.883Z,1018.92
2022-12-17T06:04:16.819Z,1018.94
2022-12-17T06:05:16.800Z,1018.98
2022-12-17T06:06:16.739Z,1018.97
2022-12-17T06:07:16.752Z,1019.02
2022-12-17T06:08:16.832Z,1019.01
2022-12-17T06:09:16.830Z,1019.01
2022-12-17T06:10:16.723Z,1019.01
2022-12-17T06:11:16.698Z,1019.02
2022-12-17T06:12:16.711Z,1019.01
2022-12-17T06:13:16.692Z,1018.99
2022-12-17T06:14:16.670Z,1018.96
2022-12-17T06:15:16.695Z,1018.97
2022-12-17T06:16:16.711Z,1019.02
2022-12-17T06:17:16.629Z,1019.05
2022-12-17T06:18:17.329Z,1019.06
2022-12-17T06:19:16.608Z,1019.07
2022-12-17T06:20:16.601Z,1019.02
2022-12-17T06:21:16.611Z,1019.09
2022-12-17T06:22:16.582Z,1019.10
2022-12-17T06:23:16.568Z,1019.11
2022-12-17T06:24:16.560Z,1019.10
2022-12-17T06:25:16.570Z,1019.12
2022-12-17T06:26:16.562Z,1019.12
2022-12-17T06:27:16.530Z,1019.12
2022-12-17T06:28:16.504Z,1019.12
2022-12-17T06:29:16.516Z,1019.13
2022-12-17T06:30:18.912Z,1019.12
2022-12-17T06:31:16.566Z,1019.15
2022-12-17T06:32:16.516Z,1019.15
2022-12-17T06:33:16.480Z,1019.15
2022-12-17T06:34:16.461Z,1019.21
2022-12-17T06:35:16.434Z,1019.24
2022-12-17T06:36:22.240Z,1019.24
2022-12-17T06:37:17.414Z,1019.31
2022-12-17T06:38:16.428Z,1019.34
2022-12-17T06:39:16.393Z,1019.35
2022-12-17T06:40:16.364Z,1019.35
2022-12-17T06:41:16.378Z,1019.38
2022-12-17T06:42:16.356Z,1019.40
2022-12-17T06:43:16.357Z,1019.40
2022-12-17T06:44:16.337Z,1019.40
2022-12-17T06:45:16.338Z,1019.42
2022-12-17T06:46:16.365Z,1019.40
2022-12-17T06:47:16.337Z,1019.47
2022-12-17T06:48:16.324Z,1019.50
2022-12-17T06:49:16.296Z,1019.51
2022-12-17T06:50:16.267Z,1019.56
2022-12-17T06:51:16.265Z,1019.59
2022-12-17T06:52:16.254Z,1019.62
2022-12-17T06:53:16.256Z,1019.68
2022-12-17T06:54:16.238Z,1019.69
2022-12-17T06:55:16.232Z,1019.70
2022-12-17T06:56:16.192Z,1019.71
2022-12-17T06:57:16.196Z,1019.72
2022-12-17T06:58:16.256Z,1019.72
2022-12-17T06:59:16.219Z,1019.74
2022-12-17T07:00:16.165Z,1019.75
2022-12-17T07:01:16.312Z,1019.77
2022-12-17T07:02:16.274Z,1019.76
2022-12-17T07:03:16.172Z,1019.77
2022-12-17T07:04:16.151Z,1019.79
2022-12-17T07:05:16.106Z,1019.81
2022-12-17T07:06:16.080Z,1019.85
2022-12-17T07:07:16.074Z,1019.86
2022-12-17T07:08:16.074Z,1019.83
2022-12-17T07:09:16.066Z,1019.82
2022-12-17T07:10:16.063Z,1019.87
2022-12-17T07:11:16.086Z,1019.87
2022-12-17T07:12:16.058Z,1019.90
2022-12-17T07:13:16.066Z,1019.89
2022-12-17T07:14:16.061Z,1019.93
2022-12-17T07:15:16.003Z,1019.94
2022-12-17T07:16:16.044Z,1019.95
2022-12-17T07:17:15.963Z,1019.92
2022-12-17T07:18:15.959Z,1019.99
2022-12-17T07:19:15.963Z,1020.07
2022-12-17T07:20:15.929Z,1020.07
2022-12-17T07:21:15.935Z,1020.10
2022-12-17T07:22:15.916Z,1020.11
2022-12-17T07:23:15.899Z,1020.15
2022-12-17T07:24:15.892Z,1020.13
2022-12-17T07:25:15.889Z,1020.16
2022-12-17T07:26:15.860Z,1020.17
2022-12-17T07:27:15.862Z,1020.16
2022-12-17T07:28:15.853Z,1020.20
2022-12-17T07:29:15.842Z,1020.17
2022-12-17T07:30:15.833Z,1020.18
2022-12-17T07:31:15.922Z,1020.24
2022-12-17T07:32:15.799Z,1020.20
2022-12-17T07:33:15.788Z,1020.24
2022-12-17T07:34:15.789Z,1020.23
2022-12-17T07:35:15.781Z,1020.25
2022-12-17T07:36:15.760Z,1020.26
2022-12-17T07:37:20.431Z,1020.21
2022-12-17T07:38:17.941Z,1020.25
2022-12-17T07:39:15.716Z,1020.25
2022-12-17T07:40:15.723Z,1020.29
2022-12-17T07:41:15.719Z,1020.32
2022-12-17T07:42:15.711Z,1020.34
2022-12-17T07:43:15.690Z,1020.37
2022-12-17T07:44:15.692Z,1020.35
2022-12-17T07:45:15.648Z,1020.37
2022-12-17T07:46:15.710Z,1020.42
2022-12-17T07:47:15.706Z,1020.39
2022-12-17T07:48:15.626Z,1020.40
2022-12-17T07:49:15.632Z,1020.36
2022-12-17T07:50:15.618Z,1020.33
2022-12-17T07:51:15.600Z,1020.39
2022-12-17T07:52:15.610Z,1020.40
2022-12-17T07:53:15.571Z,1020.41
2022-12-17T07:54:15.558Z,1020.44
2022-12-17T07:55:18.336Z,1020.42
2022-12-17T07:56:15.593Z,1020.40
2022-12-17T07:57:15.539Z,1020.41
2022-12-17T07:58:15.520Z,1020.45
2022-12-17T07:59:15.535Z,1020.47
2022-12-17T08:00:15.534Z,1020.47
2022-12-17T08:01:15.553Z,1020.46
2022-12-17T08:02:15.628Z,1020.48
2022-12-17T08:03:15.516Z,1020.50
2022-12-17T08:04:15.458Z,1020.53
2022-12-17T08:05:15.429Z,1020.53
2022-12-17T08:06:15.425Z,1020.55
2022-12-17T08:07:15.445Z,1020.54
2022-12-17T08:08:15.437Z,1020.57
2022-12-17T08:09:15.383Z,1020.57
2022-12-17T08:10:15.431Z,1020.57
2022-12-17T08:11:15.394Z,1020.59
2022-12-17T08:12:15.358Z,1020.60
2022-12-17T08:13:15.354Z,1020.62
2022-12-17T08:14:15.354Z,1020.63
2022-12-17T08:15:15.335Z,1020.66
2022-12-17T08:16:15.420Z,1020.67
2022-12-17T08:17:15.342Z,1020.66
2022-12-17T08:18:15.318Z,1020.67
2022-12-17T08:19:15.274Z,1020.68
2022-12-17T08:20:15.287Z,1020.71
2022-12-17T08:21:15.261Z,1020.72
2022-12-17T08:22:15.273Z,1020.74
2022-12-17T08:23:15.266Z,1020.72
2022-12-17T08:24:15.247Z,1020.72
2022-12-17T08:25:15.223Z,1020.70
2022-12-17T08:26:15.216Z,1020.74
2022-12-17T08:27:15.219Z,1020.73
2022-12-17T08:28:33.865Z,1020.71
2022-12-17T08:29:16.162Z,1020.72
2022-12-17T08:30:15.176Z,1020.79
2022-12-17T08:31:15.193Z,1020.76
2022-12-17T08:32:15.132Z,1020.80
2022-12-17T08:33:15.197Z,1020.75
2022-12-17T08:34:15.132Z,1020.78
2022-12-17T08:35:15.091Z,1020.80
2022-12-17T08:36:15.113Z,1020.80
2022-12-17T08:37:15.082Z,1020.83
2022-12-17T08:38:15.082Z,1020.81
2022-12-17T08:39:15.074Z,1020.79
2022-12-17T08:40:15.086Z,1020.77
2022-12-17T08:41:15.043Z,1020.83
2022-12-17T08:42:15.046Z,1020.80
2022-12-17T08:43:15.068Z,1020.80
2022-12-17T08:44:15.008Z,1020.79
2022-12-17T08:45:15.005Z,1020.75
2022-12-17T08:46:15.170Z,1020.81
2022-12-17T08:47:15.016Z,1020.82
2022-12-17T08:48:14.957Z,1020.85
2022-12-17T08:49:14.948Z,1020.81
2022-12-17T08:50:14.943Z,1020.86
2022-12-17T08:51:14.941Z,1020.87
2022-12-17T08:52:14.946Z,1020.86
2022-12-17T08:53:14.922Z,1020.92
2022-12-17T08:54:14.902Z,1020.92
2022-12-17T08:55:14.883Z,1020.89
2022-12-17T08:56:14.917Z,1020.93
2022-12-17T08:57:27.057Z,1020.99
2022-12-17T08:58:15.871Z,1021.01
2022-12-17T08:59:14.872Z,1021.03
2022-12-17T09:00:14.849Z,1021.06
2022-12-17T09:01:14.953Z,1021.08
2022-12-17T09:02:15.243Z,1021.11
2022-12-17T09:03:14.857Z,1021.10
2022-12-17T09:04:14.799Z,1021.12
2022-12-17T09:05:14.803Z,1021.09
2022-12-17T09:06:14.801Z,1021.09
2022-12-17T09:07:14.753Z,1021.08
2022-12-17T09:08:14.751Z,1021.09
2022-12-17T09:09:14.729Z,1021.11
2022-12-17T09:10:14.743Z,1021.11
2022-12-17T09:11:14.730Z,1021.10
2022-12-17T09:12:14.721Z,1021.12
2022-12-17T09:13:14.712Z,1021.12
2022-12-17T09:14:14.692Z,1021.14
2022-12-17T09:15:14.679Z,1021.15
2022-12-17T09:16:14.717Z,1021.18
2022-12-17T09:17:14.653Z,1021.19
2022-12-17T09:18:14.627Z,1021.21
2022-12-17T09:19:14.616Z,1021.21
2022-12-17T09:20:14.603Z,1021.25
2022-12-17T09:21:14.615Z,1021.22
2022-12-17T09:22:14.679Z,1021.26
2022-12-17T09:23:14.579Z,1021.24
2022-12-17T09:24:14.587Z,1021.21
2022-12-17T09:25:14.569Z,1021.19
2022-12-17T09:26:14.560Z,1021.21
2022-12-17T09:27:14.554Z,1021.17
2022-12-17T09:28:14.542Z,1021.17
2022-12-17T09:29:14.510Z,1021.18
2022-12-17T09:30:14.517Z,1021.15
2022-12-17T09:31:14.539Z,1021.18
2022-12-17T09:32:14.485Z,1021.22
2022-12-17T09:33:14.474Z,1021.20
2022-12-17T09:34:14.476Z,1021.18
2022-12-17T09:35:14.466Z,1021.21
2022-12-17T09:36:14.446Z,1021.19
2022-12-17T09:37:14.430Z,1021.19
2022-12-17T09:38:14.450Z,1021.19
2022-12-17T09:39:14.395Z,1021.21
2022-12-17T09:40:14.383Z,1021.17
2022-12-17T09:41:14.396Z,1021.15
2022-12-17T09:42:14.379Z,1021.16
2022-12-17T09:43:14.342Z,1021.18
2022-12-17T09:44:14.377Z,1021.22
2022-12-17T09:45:14.450Z,1021.23
2022-12-17T09:46:14.382Z,1021.26
2022-12-17T09:47:14.316Z,1021.21
2022-12-17T09:48:14.326Z,1021.22
2022-12-17T09:49:14.284Z,1021.25
2022-12-17T09:50:14.275Z,1021.27
2022-12-17T09:51:14.279Z,1021.29
2022-12-17T09:52:14.252Z,1021.33
2022-12-17T09:53:14.243Z,1021.38
2022-12-17T09:54:14.245Z,1021.39
2022-12-17T09:55:14.221Z,1021.39
2022-12-17T09:56:14.229Z,1021.41
2022-12-17T09:57:14.213Z,1021.45
2022-12-17T09:58:14.229Z,1021.46
2022-12-17T09:59:14.195Z,1021.50
2022-12-17T10:00:14.183Z,1021.47
2022-12-17T10:01:14.270Z,1021.47
2022-12-17T10:02:14.357Z,1021.47
2022-12-17T10:03:14.215Z,1021.47
2022-12-17T10:04:14.124Z,1021.47
2022-12-17T10:05:14.117Z,1021.48
2022-12-17T10:06:19.234Z,1021.52
2022-12-17T10:07:15.124Z,1021.53
2022-12-17T10:08:14.121Z,1021.54
2022-12-17T10:09:14.074Z,1021.54
2022-12-17T10:10:14.049Z,1021.56
2022-12-17T10:11:14.059Z,1021.59
2022-12-17T10:12:14.030Z,1021.55
2022-12-17T10:13:14.059Z,1021.57
2022-12-17T10:14:14.052Z,1021.57
2022-12-17T10:15:13.989Z,1021.51
2022-12-17T10:16:14.044Z,1021.55
2022-12-17T10:17:13.990Z,1021.55
2022-12-17T10:18:14.004Z,1021.53
2022-12-17T10:19:13.970Z,1021.53
2022-12-17T10:20:13.937Z,1021.55
2022-12-17T10:21:13.959Z,1021.50
2022-12-17T10:22:13.920Z,1021.53
2022-12-17T10:23:13.915Z,1021.56
2022-12-17T10:24:18.435Z,1021.57
2022-12-17T10:25:13.894Z,1021.58
2022-12-17T10:26:13.866Z,1021.56
2022-12-17T10:27:13.881Z,1021.62
2022-12-17T10:28:13.860Z,1021.62
2022-12-17T10:29:13.827Z,1021.62
2022-12-17T10:30:13.838Z,1021.61
2022-12-17T10:31:13.837Z,1021.62
2022-12-17T10:32:13.797Z,1021.63
2022-12-17T10:33:13.828Z,1021.64
2022-12-17T10:34:13.827Z,1021.66
2022-12-17T10:35:13.795Z,1021.68
2022-12-17T10:36:13.781Z,1021.67
2022-12-17T10:37:13.746Z,1021.64
2022-12-17T10:38:13.752Z,1021.71
2022-12-17T10:39:13.717Z,1021.69
2022-12-17T10:40:13.770Z,1021.69
2022-12-17T10:41:13.754Z,1021.70
2022-12-17T10:42:13.733Z,1021.73
2022-12-17T10:43:13.692Z,1021.73
2022-12-17T10:44:13.722Z,1021.76
2022-12-17T10:45:13.685Z,1021.78
2022-12-17T10:46:13.734Z,1021.75
2022-12-17T10:47:13.649Z,1021.79
2022-12-17T10:48:13.638Z,1021.80
2022-12-17T10:49:13.602Z,1021.73
2022-12-17T10:50:13.605Z,1021.77
2022-12-17T10:51:13.606Z,1021.73
2022-12-17T10:52:13.583Z,1021.70
2022-12-17T10:53:13.578Z,1021.75
2022-12-17T10:54:13.559Z,1021.71
2022-12-17T10:55:13.557Z,1021.73
2022-12-17T10:56:13.538Z,1021.71
2022-12-17T10:57:13.575Z,1021.71
2022-12-17T10:58:13.525Z,1021.71
2022-12-17T10:59:13.518Z,1021.68
2022-12-17T11:00:13.508Z,1021.73
2022-12-17T11:01:13.649Z,1021.77
2022-12-17T11:02:13.718Z,1021.77
2022-12-17T11:03:13.486Z,1021.80
2022-12-17T11:04:13.466Z,1021.80
2022-12-17T11:05:13.469Z,1021.84
2022-12-17T11:06:13.586Z,1021.86
2022-12-17T11:07:13.441Z,1021.87
2022-12-17T11:08:13.403Z,1021.87
2022-12-17T11:09:13.390Z,1021.89
2022-12-17T11:10:13.415Z,1021.87
2022-12-17T11:11:13.398Z,1021.91
2022-12-17T11:12:13.376Z,1021.88
2022-12-17T11:13:13.366Z,1021.91
2022-12-17T11:14:13.358Z,1021.91
2022-12-17T11:15:13.348Z,1021.92
2022-12-17T11:16:13.468Z,1021.91
2022-12-17T11:17:13.321Z,1021.94
2022-12-17T11:18:13.325Z,1021.94
2022-12-17T11:19:13.272Z,1021.92
2022-12-17T11:20:13.308Z,1021.91
2022-12-17T11:21:13.293Z,1021.92
2022-12-17T11:22:13.274Z,1021.92
2022-12-17T11:23:13.733Z,1021.92
2022-12-17T11:24:15.425Z,1021.92
2022-12-17T11:25:14.244Z,1021.92
2022-12-17T11:26:13.201Z,1021.96
2022-12-17T11:27:13.228Z,1021.93
2022-12-17T11:28:13.224Z,1021.94
2022-12-17T11:29:13.230Z,1021.95
2022-12-17T11:30:13.190Z,1021.97
2022-12-17T11:31:13.246Z,1022.03
2022-12-17T11:32:13.155Z,1022.01
2022-12-17T11:33:13.223Z,1022.05
2022-12-17T11:34:13.122Z,1022.04
2022-12-17T11:35:13.124Z,1022.03
2022-12-17T11:36:13.108Z,1022.04
2022-12-17T11:37:13.081Z,1022.02
2022-12-17T11:38:13.085Z,1022.02
2022-12-17T11:39:13.058Z,1022.00
2022-12-17T11:40:13.121Z,1022.01
2022-12-17T11:41:13.036Z,1022.05
2022-12-17T11:42:13.047Z,1022.05
2022-12-17T11:43:13.028Z,1022.07
2022-12-17T11:44:13.019Z,1022.07
2022-12-17T11:45:13.002Z,1022.07
2022-12-17T11:46:13.079Z,1022.06
2022-12-17T11:47:12.983Z,1022.06
2022-12-17T11:48:12.970Z,1022.04
2022-12-17T11:49:12.964Z,1022.04
2022-12-17T11:50:13.021Z,1022.06
2022-12-17T11:51:12.936Z,1022.07
2022-12-17T11:52:12.938Z,1022.05
2022-12-17T11:53:12.905Z,1022.09
2022-12-17T11:54:12.886Z,1022.04
2022-12-17T11:55:12.892Z,1022.08
2022-12-17T11:56:12.920Z,1022.07
2022-12-17T11:57:12.889Z,1022.08
2022-12-17T11:58:12.864Z,1022.06
2022-12-17T11:59:12.835Z,1022.05
2022-12-17T12:00:12.894Z,1022.07
2022-12-17T12:01:12.847Z,1022.02
2022-12-17T12:02:12.839Z,1022.09
2022-12-17T12:03:12.969Z,1022.07
2022-12-17T12:04:12.819Z,1022.05
2022-12-17T12:05:12.790Z,1022.08